createdAt,value
2022-10-16T00:01:30.382Z,3.83
2022-10-16T00:04:16.483Z,1.48
2022-10-16T00:07:02.804Z,2.45
2022-10-16T00:09:48.747Z,3.20
2022-10-16T00:12:34.877Z,3.78
2022-10-16T00:15:21.004Z,2.42
2022-10-16T00:18:07.262Z,3.33
2022-10-16T00:20:53.541Z,6.05
2022-10-16T00:24:16.910Z,4.03
2022-10-16T00:27:02.882Z,3.28
2022-10-16T00:29:52.749Z,4.70
2022-10-16T00:32:39.371Z,1.95
2022-10-16T00:35:25.496Z,1.60
2022-10-16T00:38:11.778Z,2.70
2022-10-16T00:40:57.835Z,0.82
2022-10-16T00:43:45.198Z,3.15
2022-10-16T00:46:37.274Z,1.77
2022-10-16T00:49:23.622Z,3.95
2022-10-16T00:52:12.672Z,3.00
2022-10-16T00:54:59.458Z,3.35
2022-10-16T00:57:46.158Z,3.72
2022-10-16T01:00:32.929Z,4.07
2022-10-16T01:03:26.732Z,4.20
2022-10-16T01:06:22.160Z,2.35
2022-10-16T01:09:31.792Z,1.63
2022-10-16T01:12:38.661Z,1.05
2022-10-16T01:15:32.174Z,2.97
2022-10-16T01:18:27.201Z,3.15
2022-10-16T01:21:23.809Z,3.25
2022-10-16T01:24:18.147Z,3.75
2022-10-16T01:27:26.149Z,2.10
2022-10-16T01:30:22.095Z,2.13
2022-10-16T01:33:15.533Z,3.28
2022-10-16T01:36:10.764Z,5.93
2022-10-16T01:38:58.217Z,20.00
2022-10-16T01:41:50.075Z,6.40
2022-10-16T01:44:37.508Z,4.53
2022-10-16T01:47:25.307Z,6.40
2022-10-16T01:50:12.959Z,8.63
2022-10-16T01:52:59.737Z,7.20
2022-10-16T01:55:47.147Z,3.13
2022-10-16T01:58:35.776Z,1.35
2022-10-16T02:01:23.277Z,4.53
2022-10-16T02:04:33.088Z,1.25
2022-10-16T02:07:18.940Z,5.20
2022-10-16T02:10:05.393Z,2.13
2022-10-16T02:13:06.285Z,4.03
2022-10-16T02:15:52.328Z,0.90
2022-10-16T02:18:40.954Z,4.78
2022-10-16T02:21:30.116Z,1.55
2022-10-16T02:24:18.985Z,4.35
2022-10-16T02:27:11.626Z,1.88
2022-10-16T02:32:47.399Z,1.05
2022-10-16T02:35:33.773Z,3.35
2022-10-16T02:38:20.182Z,2.67
2022-10-16T02:41:07.925Z,2.67
2022-10-16T02:43:54.518Z,4.68
2022-10-16T02:46:40.546Z,3.92
2022-10-16T02:49:26.635Z,4.18
2022-10-16T02:52:13.132Z,1.08
2022-10-16T02:54:59.404Z,1.70
2022-10-16T02:57:45.718Z,3.45
2022-10-16T03:00:31.665Z,3.67
2022-10-16T03:03:17.878Z,4.32
2022-10-16T03:06:04.250Z,1.35
2022-10-16T03:08:50.313Z,4.07
2022-10-16T03:11:36.366Z,2.25
2022-10-16T03:14:22.624Z,2.22
2022-10-16T03:17:08.761Z,2.80
2022-10-16T03:19:54.864Z,3.55
2022-10-16T03:22:41.059Z,2.83
2022-10-16T03:25:27.171Z,1.05
2022-10-16T03:28:13.420Z,3.15
2022-10-16T03:30:59.549Z,1.92
2022-10-16T03:33:45.917Z,5.70
2022-10-16T03:36:32.310Z,2.28
2022-10-16T03:39:18.445Z,1.73
2022-10-16T03:42:04.452Z,1.65
2022-10-16T03:44:50.611Z,2.45
2022-10-16T03:47:36.640Z,5.72
2022-10-16T03:50:22.872Z,1.60
2022-10-16T03:53:09.056Z,1.27
2022-10-16T03:55:55.125Z,1.65
2022-10-16T03:58:41.232Z,5.53
2022-10-16T04:01:27.402Z,1.30
2022-10-16T04:04:13.555Z,2.92
2022-10-16T04:06:59.700Z,1.38
2022-10-16T04:09:46.027Z,2.28
2022-10-16T04:12:32.095Z,2.53
2022-10-16T04:15:18.451Z,1.00
2022-10-16T04:18:04.693Z,3.92
2022-10-16T04:20:50.820Z,4.30
2022-10-16T04:23:36.989Z,1.42
2022-10-16T04:26:23.051Z,2.25
2022-10-16T04:29:09.282Z,1.17
2022-10-16T04:31:55.529Z,3.08
2022-10-16T04:34:41.703Z,0.88
2022-10-16T04:37:28.903Z,3.63
2022-10-16T04:40:15.676Z,1.02
2022-10-16T04:43:02.094Z,5.18
2022-10-16T04:45:48.475Z,3.28
2022-10-16T04:48:34.569Z,2.10
2022-10-16T04:51:20.837Z,1.35
2022-10-16T04:54:07.125Z,1.77
2022-10-16T04:56:53.191Z,2.58
2022-10-16T04:59:39.450Z,1.60
2022-10-16T05:02:25.476Z,3.38
2022-10-16T05:05:11.539Z,1.80
2022-10-16T05:07:57.930Z,2.00
2022-10-16T05:10:44.585Z,1.35
2022-10-16T05:13:30.686Z,1.77
2022-10-16T05:16:17.303Z,1.15
2022-10-16T05:22:08.923Z,1.40
2022-10-16T05:24:55.251Z,3.60
2022-10-16T05:27:41.526Z,3.15
2022-10-16T05:30:27.770Z,1.88
2022-10-16T05:33:14.446Z,1.88
2022-10-16T05:36:04.984Z,1.15
2022-10-16T05:38:51.940Z,2.38
2022-10-16T05:41:38.047Z,3.70
2022-10-16T05:44:24.357Z,1.73
2022-10-16T05:47:11.788Z,7.70
2022-10-16T05:49:57.855Z,4.65
2022-10-16T05:52:44.242Z,4.85
2022-10-16T05:55:30.285Z,5.82
2022-10-16T05:58:16.652Z,3.90
2022-10-16T06:01:04.465Z,5.30
2022-10-16T06:03:51.489Z,4.20
2022-10-16T06:06:37.649Z,4.50
2022-10-16T06:09:23.483Z,5.38
2022-10-16T06:12:09.693Z,3.15
2022-10-16T06:14:55.548Z,4.43
2022-10-16T06:17:41.746Z,5.68
2022-10-16T06:20:39.822Z,6.50
2022-10-16T06:23:27.041Z,7.57
2022-10-16T06:26:14.604Z,9.00
2022-10-16T06:29:01.005Z,8.15
2022-10-16T06:31:47.206Z,7.43
2022-10-16T06:34:33.215Z,7.50
2022-10-16T06:37:19.359Z,4.60
2022-10-16T06:40:08.283Z,5.07
2022-10-16T06:42:55.979Z,4.47
2022-10-16T06:45:42.093Z,4.85
2022-10-16T06:48:28.638Z,4.53
2022-10-16T06:51:15.871Z,5.53
2022-10-16T06:54:03.776Z,4.57
2022-10-16T06:56:52.098Z,4.78
2022-10-16T06:59:38.262Z,5.05
2022-10-16T07:02:24.639Z,5.07
2022-10-16T07:05:10.988Z,6.10
2022-10-16T07:07:57.045Z,4.05
2022-10-16T07:10:43.022Z,16.60
2022-10-16T07:13:29.331Z,11.52
2022-10-16T07:16:19.826Z,5.05
2022-10-16T07:19:05.542Z,11.57
2022-10-16T07:21:51.829Z,4.75
2022-10-16T07:24:56.059Z,17.65
2022-10-16T07:27:41.959Z,5.65
2022-10-16T07:30:28.055Z,7.60
2022-10-16T07:33:14.575Z,3.88
2022-10-16T07:36:00.842Z,3.10
2022-10-16T07:38:47.159Z,4.50
2022-10-16T07:41:33.971Z,5.50
2022-10-16T07:44:19.960Z,9.73
2022-10-16T07:47:06.057Z,6.78
2022-10-16T07:49:52.163Z,7.03
2022-10-16T07:52:38.122Z,6.95
2022-10-16T07:55:24.250Z,5.63
2022-10-16T07:58:10.494Z,6.13
2022-10-16T08:00:57.246Z,6.22
2022-10-16T08:03:44.420Z,6.28
2022-10-16T08:06:30.434Z,5.80
2022-10-16T08:09:34.890Z,6.47
2022-10-16T08:12:21.058Z,5.60
2022-10-16T08:15:07.434Z,5.05
2022-10-16T08:18:00.498Z,5.88
2022-10-16T08:20:46.748Z,5.28
2022-10-16T08:23:33.274Z,4.35
2022-10-16T08:26:20.162Z,6.72
2022-10-16T08:29:06.006Z,5.95
2022-10-16T08:31:52.743Z,5.90
2022-10-16T08:34:38.834Z,6.28
2022-10-16T08:37:24.909Z,6.00
2022-10-16T08:43:14.623Z,5.50
2022-10-16T08:46:06.682Z,4.65
2022-10-16T08:49:13.918Z,7.22
2022-10-16T08:52:01.253Z,5.97
2022-10-16T08:54:49.406Z,5.63
2022-10-16T08:57:35.389Z,4.88
2022-10-16T09:00:22.055Z,4.70
2022-10-16T09:03:26.980Z,5.93
2022-10-16T09:06:13.264Z,4.93
2022-10-16T09:09:05.614Z,6.00
2022-10-16T09:12:12.018Z,7.85
2022-10-16T09:15:16.896Z,12.93
2022-10-16T09:18:04.724Z,7.28
2022-10-16T09:20:54.711Z,8.82
2022-10-16T09:23:41.147Z,6.38
2022-10-16T09:26:27.451Z,4.57
2022-10-16T09:29:14.287Z,7.35
2022-10-16T09:32:08.271Z,4.72
2022-10-16T09:34:57.496Z,4.22
2022-10-16T09:37:46.920Z,4.15
2022-10-16T09:40:40.120Z,5.25
2022-10-16T09:43:54.497Z,4.55
2022-10-16T09:46:41.367Z,4.10
2022-10-16T09:49:28.090Z,4.18
2022-10-16T09:52:15.594Z,5.95
2022-10-16T09:55:04.027Z,5.07
2022-10-16T09:58:14.405Z,3.60
2022-10-16T10:01:01.192Z,4.47
2022-10-16T10:03:48.804Z,3.75
2022-10-16T10:06:39.097Z,3.80
2022-10-16T10:09:39.049Z,2.67
2022-10-16T10:12:27.281Z,4.55
2022-10-16T10:15:14.789Z,3.95
2022-10-16T10:18:03.742Z,3.38
2022-10-16T10:21:07.175Z,3.50
2022-10-16T10:24:00.054Z,5.43
2022-10-16T10:27:06.668Z,5.10
2022-10-16T10:30:22.110Z,3.42
2022-10-16T10:33:17.672Z,3.28
2022-10-16T10:36:06.522Z,5.45
2022-10-16T10:38:58.983Z,3.92
2022-10-16T10:41:45.966Z,4.90
2022-10-16T10:44:44.832Z,7.07
2022-10-16T10:47:36.976Z,6.65
2022-10-16T10:50:23.216Z,3.30
2022-10-16T10:53:28.177Z,18.63
2022-10-16T10:56:14.714Z,8.35
2022-10-16T10:59:36.480Z,3.83
2022-10-16T11:02:25.822Z,3.75
2022-10-16T11:05:12.220Z,2.78
2022-10-16T11:08:03.443Z,3.47
2022-10-16T11:10:49.759Z,3.08
2022-10-16T11:13:54.571Z,3.85
2022-10-16T11:16:43.674Z,2.97
2022-10-16T11:19:36.535Z,2.78
2022-10-16T11:22:33.367Z,3.08
2022-10-16T11:25:37.991Z,3.05
2022-10-16T11:28:30.869Z,3.38
2022-10-16T11:31:39.202Z,2.97
2022-10-16T11:34:42.939Z,1.90
2022-10-16T11:37:32.381Z,2.40
2022-10-16T11:40:23.770Z,2.60
2022-10-16T11:43:16.160Z,2.50
2022-10-16T11:46:18.875Z,2.83
2022-10-16T11:49:09.536Z,8.05
2022-10-16T11:52:00.609Z,4.93
2022-10-16T11:54:54.083Z,2.88
2022-10-16T11:57:43.451Z,2.10
2022-10-16T12:00:54.460Z,3.10
2022-10-16T12:03:44.960Z,2.70
2022-10-16T12:06:43.448Z,3.80
2022-10-16T12:09:31.276Z,3.25
2022-10-16T12:12:28.227Z,3.40
2022-10-16T12:15:22.240Z,2.50
2022-10-16T12:18:26.458Z,2.45
2022-10-16T12:21:16.838Z,3.08
2022-10-16T12:24:29.430Z,2.17
2022-10-16T12:27:25.506Z,2.90
2022-10-16T12:30:21.652Z,2.72
2022-10-16T12:33:20.954Z,2.72
2022-10-16T12:36:13.467Z,3.53
2022-10-16T12:39:00.074Z,2.67
2022-10-16T12:41:46.455Z,2.63
2022-10-16T12:44:34.411Z,3.08
2022-10-16T12:47:25.063Z,2.85
2022-10-16T12:50:29.870Z,3.33
2022-10-16T12:53:20.977Z,1.92
2022-10-16T12:56:22.913Z,1.75
2022-10-16T12:59:27.801Z,1.77
2022-10-16T13:02:32.898Z,2.10
2022-10-16T13:05:22.365Z,1.73
2022-10-16T13:08:08.503Z,1.48
2022-10-16T13:10:57.699Z,1.55
2022-10-16T13:13:54.185Z,1.92
2022-10-16T13:16:50.831Z,1.10
2022-10-16T13:20:01.875Z,1.75
2022-10-16T13:23:03.243Z,1.55
2022-10-16T13:26:02.653Z,1.48
2022-10-16T13:28:49.044Z,1.70
2022-10-16T13:31:38.786Z,2.28
2022-10-16T13:34:26.212Z,1.80
2022-10-16T13:37:23.172Z,2.00
2022-10-16T13:40:20.041Z,1.85
2022-10-16T13:43:06.330Z,1.80
2022-10-16T13:45:57.277Z,2.15
2022-10-16T13:48:44.633Z,1.60
2022-10-16T13:51:32.364Z,1.63
2022-10-16T13:54:18.334Z,1.75
2022-10-16T13:57:26.396Z,2.20
2022-10-16T14:00:24.702Z,1.80
2022-10-16T14:03:15.390Z,2.38
2022-10-16T14:06:02.779Z,2.00
2022-10-16T14:08:56.078Z,2.28
2022-10-16T14:12:02.366Z,2.42
2022-10-16T14:14:49.794Z,2.58
2022-10-16T14:17:36.849Z,2.33
2022-10-16T14:20:26.684Z,2.42
2022-10-16T14:26:10.170Z,2.25
2022-10-16T14:29:22.830Z,1.70
2022-10-16T14:32:23.515Z,2.53
2022-10-16T14:35:29.731Z,2.60
2022-10-16T14:38:19.623Z,2.35
2022-10-16T14:41:06.356Z,2.50
2022-10-16T14:44:12.011Z,3.30
2022-10-16T14:46:58.252Z,2.40
2022-10-16T14:49:45.646Z,2.38
2022-10-16T14:52:31.932Z,1.98
2022-10-16T14:55:18.385Z,4.15
2022-10-16T14:58:04.298Z,2.10
2022-10-16T15:00:50.841Z,2.28
2022-10-16T15:03:37.499Z,2.72
2022-10-16T15:06:27.098Z,2.30
2022-10-16T15:09:13.639Z,2.65
2022-10-16T15:12:00.871Z,2.80
2022-10-16T15:14:47.730Z,2.53
2022-10-16T15:17:33.971Z,2.45
2022-10-16T15:20:20.894Z,2.50
2022-10-16T15:23:13.880Z,2.75
2022-10-16T15:26:02.912Z,3.15
2022-10-16T15:28:49.448Z,3.55
2022-10-16T15:31:36.335Z,2.90
2022-10-16T15:34:22.802Z,3.03
2022-10-16T15:37:10.384Z,4.65
2022-10-16T15:39:56.633Z,2.80
2022-10-16T15:42:42.944Z,2.47
2022-10-16T15:45:29.568Z,3.70
2022-10-16T15:48:16.141Z,4.07
2022-10-16T15:51:05.844Z,3.25
2022-10-16T15:53:52.367Z,3.10
2022-10-16T15:56:39.012Z,3.05
2022-10-16T15:59:25.233Z,2.85
2022-10-16T16:02:11.526Z,3.42
2022-10-16T16:04:58.273Z,2.70
2022-10-16T16:07:45.294Z,3.03
2022-10-16T16:10:32.305Z,2.60
2022-10-16T16:13:18.592Z,2.83
2022-10-16T16:16:09.181Z,3.45
2022-10-16T16:18:56.560Z,3.20
2022-10-16T16:21:43.730Z,2.90
2022-10-16T16:24:30.722Z,3.15
2022-10-16T16:27:17.485Z,2.92
2022-10-16T16:30:04.733Z,3.00
2022-10-16T16:32:50.668Z,2.85
2022-10-16T16:35:39.550Z,2.55
2022-10-16T16:38:26.209Z,3.15
2022-10-16T16:41:16.516Z,2.63
2022-10-16T16:44:11.030Z,2.72
2022-10-16T16:46:57.449Z,2.80
2022-10-16T16:49:52.925Z,2.17
2022-10-16T16:52:38.982Z,2.33
2022-10-16T16:55:31.104Z,2.20
2022-10-16T16:58:18.347Z,2.60
2022-10-16T17:01:19.351Z,2.78
2022-10-16T17:04:11.693Z,2.70
2022-10-16T17:06:57.861Z,2.38
2022-10-16T17:09:44.296Z,2.83
2022-10-16T17:12:33.762Z,2.80
2022-10-16T17:15:23.171Z,2.60
2022-10-16T17:18:09.327Z,3.00
2022-10-16T17:20:55.833Z,2.05
2022-10-16T17:23:43.628Z,3.00
2022-10-16T17:26:30.556Z,3.10
2022-10-16T17:29:25.332Z,4.80
2022-10-16T17:32:13.399Z,3.33
2022-10-16T17:34:59.874Z,3.40
2022-10-16T17:37:46.428Z,8.38
2022-10-16T17:40:33.197Z,5.10
2022-10-16T17:43:19.569Z,4.30
2022-10-16T17:46:07.297Z,4.32
2022-10-16T17:48:54.794Z,4.88
2022-10-16T17:51:41.671Z,4.25
2022-10-16T17:55:01.775Z,13.13
2022-10-16T17:57:48.555Z,24.30
2022-10-16T18:00:35.596Z,23.15
2022-10-16T18:03:22.187Z,18.70
2022-10-16T18:06:08.715Z,16.67
2022-10-16T18:08:55.527Z,35.30
2022-10-16T18:11:42.123Z,39.85
2022-10-16T18:14:29.060Z,28.90
2022-10-16T18:17:16.623Z,10.77
2022-10-16T18:20:02.909Z,5.50
2022-10-16T18:22:54.368Z,4.95
2022-10-16T18:25:49.743Z,10.40
2022-10-16T18:28:36.116Z,14.98
2022-10-16T18:31:23.360Z,16.15
2022-10-16T18:34:09.697Z,16.95
2022-10-16T18:36:57.737Z,14.50
2022-10-16T18:39:47.622Z,17.20
2022-10-16T18:42:33.677Z,13.48
2022-10-16T18:45:21.268Z,10.48
2022-10-16T18:48:10.624Z,8.55
2022-10-16T18:51:09.781Z,9.40
2022-10-16T18:54:03.910Z,9.38
2022-10-16T18:56:51.833Z,8.48
2022-10-16T18:59:39.976Z,8.43
2022-10-16T19:05:27.086Z,8.80
2022-10-16T19:08:13.907Z,8.13
2022-10-16T19:11:12.599Z,10.18
2022-10-16T19:16:53.303Z,7.00
2022-10-16T19:19:42.887Z,7.95
2022-10-16T19:22:41.221Z,22.65
2022-10-16T19:25:28.419Z,8.65
2022-10-16T19:28:14.560Z,6.95
2022-10-16T19:31:01.837Z,12.52
2022-10-16T19:33:48.079Z,8.15
2022-10-16T19:36:35.223Z,7.00
2022-10-16T19:39:25.583Z,6.40
2022-10-16T19:42:13.159Z,6.10
2022-10-16T19:45:02.826Z,6.68
2022-10-16T19:47:49.641Z,6.70
2022-10-16T19:50:36.006Z,7.78
2022-10-16T19:53:22.363Z,7.00
2022-10-16T19:56:17.997Z,7.60
2022-10-16T19:59:07.261Z,9.23
2022-10-16T20:02:15.064Z,8.52
2022-10-16T20:05:01.642Z,9.35
2022-10-16T20:07:49.468Z,9.43
2022-10-16T20:11:07.173Z,8.88
2022-10-16T20:14:04.952Z,7.97
2022-10-16T20:16:53.474Z,8.30
2022-10-16T20:19:44.000Z,7.38
2022-10-16T20:22:41.563Z,6.80
2022-10-16T20:25:29.597Z,5.43
2022-10-16T20:28:18.693Z,5.95
2022-10-16T20:31:10.065Z,6.20
2022-10-16T20:33:57.675Z,2.92
2022-10-16T20:36:45.421Z,6.72
2022-10-16T20:39:34.472Z,7.00
2022-10-16T20:42:20.746Z,9.23
2022-10-16T20:45:12.489Z,9.98
2022-10-16T20:47:59.352Z,12.88
2022-10-16T20:50:45.865Z,11.68
2022-10-16T20:53:34.868Z,10.55
2022-10-16T20:56:24.123Z,9.70
2022-10-16T20:59:11.184Z,8.57
2022-10-16T21:01:57.731Z,9.52
2022-10-16T21:04:47.007Z,10.80
2022-10-16T21:07:33.551Z,10.48
2022-10-16T21:10:21.324Z,9.75
2022-10-16T21:13:07.628Z,5.13
2022-10-16T21:15:53.933Z,4.28
2022-10-16T21:18:44.165Z,2.90
2022-10-16T21:21:32.550Z,4.65
2022-10-16T21:24:28.262Z,3.65
2022-10-16T21:27:20.336Z,7.85
2022-10-16T21:30:07.660Z,7.25
2022-10-16T21:32:53.640Z,7.57
2022-10-16T21:35:39.769Z,7.88
2022-10-16T21:38:26.179Z,12.57
2022-10-16T21:41:17.052Z,12.02
2022-10-16T21:44:03.828Z,8.60
2022-10-16T21:46:51.640Z,2.78
2022-10-16T21:49:41.141Z,7.57
2022-10-16T21:52:27.399Z,5.88
2022-10-16T21:55:14.480Z,3.78
2022-10-16T21:58:01.796Z,5.20
2022-10-16T22:00:48.448Z,6.25
2022-10-16T22:03:35.196Z,8.98
2022-10-16T22:12:00.407Z,11.93
2022-10-16T22:14:49.980Z,12.20
2022-10-16T22:17:36.737Z,11.95
2022-10-16T22:20:22.958Z,11.05
2022-10-16T22:23:09.150Z,9.30
2022-10-16T22:26:06.169Z,13.55
2022-10-16T22:29:03.545Z,5.88
2022-10-16T22:31:52.502Z,10.98
2022-10-16T22:34:38.830Z,8.80
2022-10-16T22:37:25.002Z,8.30
2022-10-16T22:40:12.219Z,7.05
2022-10-16T22:42:58.517Z,12.40
2022-10-16T22:45:44.519Z,16.33
2022-10-16T22:48:30.863Z,5.20
2022-10-16T22:51:17.632Z,6.85
2022-10-16T22:54:03.882Z,6.45
2022-10-16T22:56:50.146Z,1.67
2022-10-16T22:59:36.275Z,6.60
2022-10-16T23:02:25.854Z,6.75
2022-10-16T23:05:12.399Z,6.45
2022-10-16T23:07:58.813Z,3.05
2022-10-16T23:10:46.273Z,5.80
2022-10-16T23:13:32.648Z,6.18
2022-10-16T23:16:19.830Z,2.83
2022-10-16T23:19:06.030Z,4.47
2022-10-16T23:21:52.367Z,8.23
2022-10-16T23:24:38.805Z,6.32
2022-10-16T23:27:25.090Z,2.65
2022-10-16T23:30:11.478Z,3.63
2022-10-16T23:32:57.581Z,1.70
2022-10-16T23:35:43.686Z,6.30
2022-10-16T23:38:30.050Z,4.28
2022-10-16T23:41:17.328Z,1.02
2022-10-16T23:44:04.671Z,6.95
2022-10-16T23:46:50.575Z,2.13
2022-10-16T23:49:36.943Z,6.45
2022-10-16T23:52:25.241Z,3.08
2022-10-16T23:55:11.537Z,5.90
2022-10-16T23:57:57.935Z,5.43
